Amber, NY

2:56 PM EDT on September 30, 2014 (GMT -0400)
Oswego County | Change Station
CLOSE
Current Station
Airport
Location: Fulton,
Elevation: 472 ft
Nearby Weather Stations

Elev 472 ft 43.35 °N, 76.38 °W | Updated 1 hour ago

Partly Cloudy
Partly Cloudy
75 °F
Feels Like 75 °F
N
0
Wind Variable Wind from North

Today
High -- | Low -- °F
--% Chance of Precip.
Yesterday
High -- | Low -- °F
Precip. -- in
7:01 AM 6:48 PM
Waxing Crescent, 39% visible
Pressure 29.89 in
Visibility 10.0 miles
Clouds Clear
Dew Point 60 °F
Humidity 60%
Rainfall 0.00 in
Snow Depth Not available.
UV 5 out of 12
Pollen 2.30 out of 12
PM2.5 Good
Flu Activity Not available.
METAR KFZY 301754Z AUTO 00000KT 10SM CLR 24/16 A2989 RMK AO2 SLP120 T02390156 10239 20144 58006

More Conditions Fewer Conditions

Pressure 29.89 in
Visibility 10.0 miles
Clouds Clear
Dew Point 60 °F
Humidity 60%
Rainfall 0.00 in
Snow Depth Not available.
UV 5 out of 12
Pollen 2.30 out of 12
PM2.5 Good
Flu Activity Not available.
METAR KFZY 301754Z AUTO 00000KT 10SM CLR 24/16 A2989 RMK AO2 SLP120 T02390156 10239 20144 58006

More Conditions Fewer Conditions

10-Day Weather Forecast

Almanac

Astronomy

Sep. 30, 2014 Rise Set
Actual Time 7:01 AM EDT 6:48 PM EDT
Civil Twilight 6:33 AM EDT 7:16 PM EDT
Nautical Twilight 6:00 AM EDT 7:49 PM EDT
Astronomical Twilight 5:26 AM EDT 8:22 PM EDT
Moon 1:13 PM EDT 11:09 PM EDT
Length of Visible Light 12h 43m
Length of Day
11h 46m
Tomorrow will be 2m 53s shorter.
Waxing Crescent, 39% of the Moon is Illuminated
Today
Waxing Crescent
Oct 1
First Quarter
Oct 8
Full
Oct 15
Last Quarter
Oct 23
New

Today's Extremes

State Highs State Lows

Community

WunderPhotos

Upload Photos

1,757,712 photos uploaded!

Nearby

Air Quality

  Air Quality AQ Index Pollutant
Yesterday Good
OZONE
Yesterday Good
PM2.5
Current Good
PM2.5
Tuesday Moderate
PM2.5
Tuesday Good
OZONE
Wednesday Good
PM2.5

Snow Depth

Station Depth Elevation
No new snow has been reported.

Earthquake Activity

City Distance Mag. Time & Date
No recent earthquake activity has been reported nearby.
Minimum magnitude displayed is 2.5.

Coastal Water Temperatures

Place Temperature
No Stations Reporting

Nearby Weather Stations